sensor_id;sensor_type;location;lat;lon;timestamp;pressure;altitude;pressure_sealevel;temperature;humidity
28606;BME280;46498;49.968;7.754;2022-10-16T00:02:03;96819.00;;;12.28;100.00
28606;BME280;46498;49.968;7.754;2022-10-16T00:07:04;96820.00;;;12.32;100.00
28606;BME280;46498;49.968;7.754;2022-10-16T00:12:05;96828.00;;;12.32;100.00
28606;BME280;46498;49.968;7.754;2022-10-16T00:17:07;96818.00;;;12.29;100.00
28606;BME280;46498;49.968;7.754;2022-10-16T00:22:08;96819.00;;;12.24;100.00
28606;BME280;46498;49.968;7.754;2022-10-16T00:27:09;96810.00;;;12.23;100.00
28606;BME280;46498;49.968;7.754;2022-10-16T00:32:10;96814.00;;;12.23;100.00
28606;BME280;46498;49.968;7.754;2022-10-16T00:37:11;96817.00;;;12.24;100.00
28606;BME280;46498;49.968;7.754;2022-10-16T00:42:16;96812.00;;;12.23;100.00
28606;BME280;46498;49.968;7.754;2022-10-16T00:47:26;96832.00;;;12.12;100.00
28606;BME280;46498;49.968;7.754;2022-10-16T00:52:28;96826.00;;;12.18;100.00
28606;BME280;46498;49.968;7.754;2022-10-16T00:57:29;96821.00;;;12.31;100.00
28606;BME280;46498;49.968;7.754;2022-10-16T01:02:30;96820.00;;;12.23;100.00
28606;BME280;46498;49.968;7.754;2022-10-16T01:07:58;96806.00;;;12.24;100.00
28606;BME280;46498;49.968;7.754;2022-10-16T01:13:11;96799.00;;;12.50;100.00
28606;BME280;46498;49.968;7.754;2022-10-16T01:18:35;96817.00;;;12.39;100.00
28606;BME280;46498;49.968;7.754;2022-10-16T01:24:41;96826.00;;;12.39;100.00
28606;BME280;46498;49.968;7.754;2022-10-16T01:29:52;96842.00;;;12.16;100.00
28606;BME280;46498;49.968;7.754;2022-10-16T01:35:00;96844.00;;;12.17;100.00
28606;BME280;46498;49.968;7.754;2022-10-16T01:40:05;96851.00;;;12.01;100.00
28606;BME280;46498;49.968;7.754;2022-10-16T01:45:09;96856.00;;;12.08;100.00
28606;BME280;46498;49.968;7.754;2022-10-16T01:50:15;96830.00;;;12.14;100.00
28606;BME280;46498;49.968;7.754;2022-10-16T01:55:22;96860.00;;;11.98;100.00
28606;BME280;46498;49.968;7.754;2022-10-16T02:00:24;96863.00;;;12.05;100.00
28606;BME280;46498;49.968;7.754;2022-10-16T02:05:31;96856.00;;;12.18;100.00
28606;BME280;46498;49.968;7.754;2022-10-16T02:10:34;96855.00;;;12.24;100.00
28606;BME280;46498;49.968;7.754;2022-10-16T02:15:36;96866.00;;;12.33;100.00
28606;BME280;46498;49.968;7.754;2022-10-16T02:20:51;96865.00;;;12.26;100.00
28606;BME280;46498;49.968;7.754;2022-10-16T02:25:54;96863.00;;;12.45;100.00
28606;BME280;46498;49.968;7.754;2022-10-16T02:31:02;96857.00;;;12.45;100.00
28606;BME280;46498;49.968;7.754;2022-10-16T02:36:05;96856.00;;;12.43;100.00
28606;BME280;46498;49.968;7.754;2022-10-16T02:41:07;96854.00;;;12.52;100.00
28606;BME280;46498;49.968;7.754;2022-10-16T02:46:08;96864.00;;;12.51;100.00
28606;BME280;46498;49.968;7.754;2022-10-16T02:51:09;96867.00;;;12.59;100.00
28606;BME280;46498;49.968;7.754;2022-10-16T02:56:10;96870.00;;;12.57;100.00
28606;BME280;46498;49.968;7.754;2022-10-16T03:01:11;96875.00;;;12.51;100.00
28606;BME280;46498;49.968;7.754;2022-10-16T03:06:13;96879.00;;;12.47;100.00
28606;BME280;46498;49.968;7.754;2022-10-16T03:11:14;96852.00;;;12.45;100.00
28606;BME280;46498;49.968;7.754;2022-10-16T03:16:14;96862.00;;;12.31;100.00
28606;BME280;46498;49.968;7.754;2022-10-16T03:21:16;96875.00;;;12.23;100.00
28606;BME280;46498;49.968;7.754;2022-10-16T03:26:17;96888.00;;;12.23;100.00
28606;BME280;46498;49.968;7.754;2022-10-16T03:31:18;96882.00;;;12.28;100.00
28606;BME280;46498;49.968;7.754;2022-10-16T03:36:19;96877.00;;;12.39;100.00
28606;BME280;46498;49.968;7.754;2022-10-16T03:41:20;96887.00;;;12.40;100.00
28606;BME280;46498;49.968;7.754;2022-10-16T03:46:20;96880.00;;;12.37;100.00
28606;BME280;46498;49.968;7.754;2022-10-16T03:51:21;96891.00;;;12.39;100.00
28606;BME280;46498;49.968;7.754;2022-10-16T03:56:22;96881.00;;;12.36;100.00
28606;BME280;46498;49.968;7.754;2022-10-16T04:01:23;96895.00;;;12.36;100.00
28606;BME280;46498;49.968;7.754;2022-10-16T04:06:24;96893.00;;;12.35;100.00
28606;BME280;46498;49.968;7.754;2022-10-16T04:11:24;96904.00;;;12.44;100.00
28606;BME280;46498;49.968;7.754;2022-10-16T04:16:25;96897.00;;;12.59;100.00
28606;BME280;46498;49.968;7.754;2022-10-16T04:21:26;96891.00;;;12.44;100.00
28606;BME280;46498;49.968;7.754;2022-10-16T04:26:27;96904.00;;;12.47;100.00
28606;BME280;46498;49.968;7.754;2022-10-16T04:31:28;96899.00;;;12.53;100.00
28606;BME280;46498;49.968;7.754;2022-10-16T04:36:29;96911.00;;;12.47;100.00
28606;BME280;46498;49.968;7.754;2022-10-16T04:41:30;96906.00;;;12.47;100.00
28606;BME280;46498;49.968;7.754;2022-10-16T04:46:31;96912.00;;;12.49;100.00
28606;BME280;46498;49.968;7.754;2022-10-16T04:51:31;96920.00;;;12.58;100.00
28606;BME280;46498;49.968;7.754;2022-10-16T04:56:32;96914.00;;;12.68;100.00
28606;BME280;46498;49.968;7.754;2022-10-16T05:01:33;96912.00;;;12.60;100.00
28606;BME280;46498;49.968;7.754;2022-10-16T05:06:34;96923.00;;;12.69;100.00
28606;BME280;46498;49.968;7.754;2022-10-16T05:11:35;96921.00;;;12.66;100.00
28606;BME280;46498;49.968;7.754;2022-10-16T05:16:36;96921.00;;;12.64;100.00
28606;BME280;46498;49.968;7.754;2022-10-16T05:21:36;96930.00;;;12.70;100.00
28606;BME280;46498;49.968;7.754;2022-10-16T05:26:37;96924.00;;;12.83;100.00
28606;BME280;46498;49.968;7.754;2022-10-16T05:31:38;96928.00;;;12.68;100.00
28606;BME280;46498;49.968;7.754;2022-10-16T05:36:39;96934.00;;;12.76;100.00
28606;BME280;46498;49.968;7.754;2022-10-16T05:41:40;96945.00;;;12.81;100.00
28606;BME280;46498;49.968;7.754;2022-10-16T05:46:41;96949.00;;;12.75;100.00
28606;BME280;46498;49.968;7.754;2022-10-16T05:51:42;96962.00;;;12.72;100.00
28606;BME280;46498;49.968;7.754;2022-10-16T05:56:43;96967.00;;;12.77;100.00
28606;BME280;46498;49.968;7.754;2022-10-16T06:01:44;96963.00;;;12.75;100.00
28606;BME280;46498;49.968;7.754;2022-10-16T06:06:44;96954.00;;;12.73;100.00
28606;BME280;46498;49.968;7.754;2022-10-16T06:11:45;96967.00;;;12.87;100.00
28606;BME280;46498;49.968;7.754;2022-10-16T06:16:46;96958.00;;;12.79;100.00
28606;BME280;46498;49.968;7.754;2022-10-16T06:21:47;96954.00;;;12.81;100.00
28606;BME280;46498;49.968;7.754;2022-10-16T06:26:48;96956.00;;;12.87;100.00
28606;BME280;46498;49.968;7.754;2022-10-16T06:31:49;96961.00;;;12.86;100.00
28606;BME280;46498;49.968;7.754;2022-10-16T06:36:50;96976.00;;;12.89;100.00
28606;BME280;46498;49.968;7.754;2022-10-16T06:41:51;96976.00;;;12.96;100.00
28606;BME280;46498;49.968;7.754;2022-10-16T06:46:52;96978.00;;;12.86;100.00
28606;BME280;46498;49.968;7.754;2022-10-16T06:51:53;96980.00;;;12.84;100.00
28606;BME280;46498;49.968;7.754;2022-10-16T06:56:54;96998.00;;;12.85;100.00
28606;BME280;46498;49.968;7.754;2022-10-16T07:01:55;97011.00;;;12.90;100.00
28606;BME280;46498;49.968;7.754;2022-10-16T07:06:55;97012.00;;;12.96;100.00
28606;BME280;46498;49.968;7.754;2022-10-16T07:11:56;97025.00;;;12.99;100.00
28606;BME280;46498;49.968;7.754;2022-10-16T07:16:57;97031.00;;;13.13;100.00
28606;BME280;46498;49.968;7.754;2022-10-16T07:21:58;97037.00;;;13.10;100.00
28606;BME280;46498;49.968;7.754;2022-10-16T07:26:59;97048.00;;;13.18;100.00
28606;BME280;46498;49.968;7.754;2022-10-16T07:32:01;97047.00;;;13.16;100.00
28606;BME280;46498;49.968;7.754;2022-10-16T07:37:03;97060.00;;;13.22;100.00
28606;BME280;46498;49.968;7.754;2022-10-16T07:42:03;97072.00;;;13.22;100.00
28606;BME280;46498;49.968;7.754;2022-10-16T07:47:04;97079.00;;;13.23;100.00
28606;BME280;46498;49.968;7.754;2022-10-16T07:52:05;97086.00;;;13.33;100.00
28606;BME280;46498;49.968;7.754;2022-10-16T07:57:06;97094.00;;;13.38;100.00
28606;BME280;46498;49.968;7.754;2022-10-16T08:02:07;97102.00;;;13.51;100.00
28606;BME280;46498;49.968;7.754;2022-10-16T08:07:08;97114.00;;;13.46;100.00
28606;BME280;46498;49.968;7.754;2022-10-16T08:12:09;97125.00;;;13.42;100.00
28606;BME280;46498;49.968;7.754;2022-10-16T08:17:13;97136.00;;;13.46;100.00
28606;BME280;46498;49.968;7.754;2022-10-16T08:22:14;97144.00;;;13.61;100.00
28606;BME280;46498;49.968;7.754;2022-10-16T08:27:15;97148.00;;;13.66;100.00
28606;BME280;46498;49.968;7.754;2022-10-16T08:32:16;97144.00;;;13.61;100.00
28606;BME280;46498;49.968;7.754;2022-10-16T08:37:17;97134.00;;;13.69;100.00
28606;BME280;46498;49.968;7.754;2022-10-16T08:43:19;97154.00;;;13.68;100.00
28606;BME280;46498;49.968;7.754;2022-10-16T08:48:45;97159.00;;;13.67;100.00
28606;BME280;46498;49.968;7.754;2022-10-16T08:53:59;97168.00;;;13.68;100.00
28606;BME280;46498;49.968;7.754;2022-10-16T08:59:06;97172.00;;;13.72;100.00
28606;BME280;46498;49.968;7.754;2022-10-16T09:05:36;97180.00;;;13.92;100.00
28606;BME280;46498;49.968;7.754;2022-10-16T09:10:59;97182.00;;;14.09;100.00
28606;BME280;46498;49.968;7.754;2022-10-16T09:16:19;97203.00;;;14.12;100.00
28606;BME280;46498;49.968;7.754;2022-10-16T09:21:29;97197.00;;;14.24;100.00
28606;BME280;46498;49.968;7.754;2022-10-16T09:26:31;97190.00;;;14.41;100.00
28606;BME280;46498;49.968;7.754;2022-10-16T09:31:36;97200.00;;;14.42;100.00
28606;BME280;46498;49.968;7.754;2022-10-16T09:36:43;97199.00;;;14.52;100.00
28606;BME280;46498;49.968;7.754;2022-10-16T09:41:45;97199.00;;;14.92;100.00
28606;BME280;46498;49.968;7.754;2022-10-16T09:46:46;97198.00;;;15.61;100.00
28606;BME280;46498;49.968;7.754;2022-10-16T09:51:47;97210.00;;;16.27;100.00
28606;BME280;46498;49.968;7.754;2022-10-16T09:56:48;97212.00;;;17.07;100.00
28606;BME280;46498;49.968;7.754;2022-10-16T10:01:53;97213.00;;;17.15;100.00
28606;BME280;46498;49.968;7.754;2022-10-16T10:06:56;97223.00;;;17.03;100.00
28606;BME280;46498;49.968;7.754;2022-10-16T10:11:59;97218.00;;;17.07;100.00
28606;BME280;46498;49.968;7.754;2022-10-16T10:17:19;97212.00;;;16.71;100.00
28606;BME280;46498;49.968;7.754;2022-10-16T10:23:22;97214.00;;;16.53;100.00
28606;BME280;46498;49.968;7.754;2022-10-16T10:29:06;97220.00;;;16.39;100.00
28606;BME280;46498;49.968;7.754;2022-10-16T10:34:40;97229.00;;;16.22;100.00
28606;BME280;46498;49.968;7.754;2022-10-16T10:40:16;97229.00;;;15.97;100.00
28606;BME280;46498;49.968;7.754;2022-10-16T10:45:44;97236.00;;;15.62;100.00
28606;BME280;46498;49.968;7.754;2022-10-16T10:51:08;97231.00;;;15.65;100.00
28606;BME280;46498;49.968;7.754;2022-10-16T11:12:38;97222.00;;;15.80;100.00
28606;BME280;46498;49.968;7.754;2022-10-16T11:24:59;97214.00;;;15.77;100.00
28606;BME280;46498;49.968;7.754;2022-10-16T11:30:12;97206.00;;;16.15;100.00
28606;BME280;46498;49.968;7.754;2022-10-16T11:35:19;97217.00;;;16.96;100.00
28606;BME280;46498;49.968;7.754;2022-10-16T11:40:31;97216.00;;;16.85;100.00
28606;BME280;46498;49.968;7.754;2022-10-16T11:45:40;97213.00;;;16.83;100.00
28606;BME280;46498;49.968;7.754;2022-10-16T11:54:20;97223.00;;;16.64;100.00
28606;BME280;46498;49.968;7.754;2022-10-16T11:59:58;97227.00;;;16.42;100.00
28606;BME280;46498;49.968;7.754;2022-10-16T12:05:25;97230.00;;;16.68;100.00
28606;BME280;46498;49.968;7.754;2022-10-16T12:10:30;97232.00;;;16.84;100.00
28606;BME280;46498;49.968;7.754;2022-10-16T12:15:33;97230.00;;;17.11;100.00
28606;BME280;46498;49.968;7.754;2022-10-16T12:20:59;97224.00;;;17.04;100.00
28606;BME280;46498;49.968;7.754;2022-10-16T12:26:06;97237.00;;;16.61;100.00
28606;BME280;46498;49.968;7.754;2022-10-16T12:31:08;97229.00;;;16.38;100.00
28606;BME280;46498;49.968;7.754;2022-10-16T12:36:15;97238.00;;;16.43;100.00
28606;BME280;46498;49.968;7.754;2022-10-16T12:41:34;97244.00;;;16.74;100.00
28606;BME280;46498;49.968;7.754;2022-10-16T12:46:38;97238.00;;;16.93;100.00
28606;BME280;46498;49.968;7.754;2022-10-16T12:51:41;97241.00;;;16.90;100.00
28606;BME280;46498;49.968;7.754;2022-10-16T13:12:15;97247.00;;;16.88;100.00
28606;BME280;46498;49.968;7.754;2022-10-16T13:19:30;97242.00;;;16.76;100.00
28606;BME280;46498;49.968;7.754;2022-10-16T13:32:46;97237.00;;;16.75;100.00
28606;BME280;46498;49.968;7.754;2022-10-16T13:38:02;97232.00;;;16.70;100.00
28606;BME280;46498;49.968;7.754;2022-10-16T13:43:03;97236.00;;;16.53;100.00
28606;BME280;46498;49.968;7.754;2022-10-16T13:48:08;97238.00;;;16.53;100.00
28606;BME280;46498;49.968;7.754;2022-10-16T13:53:14;97241.00;;;16.54;100.00
28606;BME280;46498;49.968;7.754;2022-10-16T13:58:15;97233.00;;;16.72;100.00
28606;BME280;46498;49.968;7.754;2022-10-16T14:03:16;97239.00;;;16.76;100.00
28606;BME280;46498;49.968;7.754;2022-10-16T14:08:17;97240.00;;;16.76;100.00
28606;BME280;46498;49.968;7.754;2022-10-16T14:13:23;97233.00;;;16.56;100.00
28606;BME280;46498;49.968;7.754;2022-10-16T14:18:27;97241.00;;;16.53;100.00
28606;BME280;46498;49.968;7.754;2022-10-16T14:23:37;97249.00;;;16.61;100.00
28606;BME280;46498;49.968;7.754;2022-10-16T14:28:40;97238.00;;;16.38;100.00
28606;BME280;46498;49.968;7.754;2022-10-16T14:33:41;97243.00;;;16.52;100.00
28606;BME280;46498;49.968;7.754;2022-10-16T14:38:48;97249.00;;;16.24;100.00
28606;BME280;46498;49.968;7.754;2022-10-16T14:43:55;97252.00;;;16.26;100.00
28606;BME280;46498;49.968;7.754;2022-10-16T14:49:30;97255.00;;;16.30;100.00
28606;BME280;46498;49.968;7.754;2022-10-16T14:54:32;97248.00;;;16.16;100.00
28606;BME280;46498;49.968;7.754;2022-10-16T14:59:42;97255.00;;;16.10;100.00
28606;BME280;46498;49.968;7.754;2022-10-16T15:04:47;97263.00;;;16.15;100.00
28606;BME280;46498;49.968;7.754;2022-10-16T15:09:48;97265.00;;;16.02;100.00
28606;BME280;46498;49.968;7.754;2022-10-16T15:14:50;97263.00;;;15.97;100.00
28606;BME280;46498;49.968;7.754;2022-10-16T15:19:51;97268.00;;;15.92;100.00
28606;BME280;46498;49.968;7.754;2022-10-16T15:24:52;97267.00;;;16.10;100.00
28606;BME280;46498;49.968;7.754;2022-10-16T15:29:52;97272.00;;;15.98;100.00
28606;BME280;46498;49.968;7.754;2022-10-16T15:34:53;97277.00;;;15.93;100.00
28606;BME280;46498;49.968;7.754;2022-10-16T15:39:54;97279.00;;;16.01;100.00
28606;BME280;46498;49.968;7.754;2022-10-16T15:44:55;97277.00;;;15.99;100.00
28606;BME280;46498;49.968;7.754;2022-10-16T15:49:56;97274.00;;;16.11;100.00
28606;BME280;46498;49.968;7.754;2022-10-16T15:54:57;97273.00;;;16.20;100.00
28606;BME280;46498;49.968;7.754;2022-10-16T15:59:57;97272.00;;;16.10;100.00
28606;BME280;46498;49.968;7.754;2022-10-16T16:04:58;97276.00;;;16.02;100.00
28606;BME280;46498;49.968;7.754;2022-10-16T16:10:00;97275.00;;;15.95;100.00
28606;BME280;46498;49.968;7.754;2022-10-16T16:15:03;97263.00;;;15.85;100.00
28606;BME280;46498;49.968;7.754;2022-10-16T16:20:08;97268.00;;;15.79;100.00
28606;BME280;46498;49.968;7.754;2022-10-16T16:25:09;97259.00;;;15.67;100.00
28606;BME280;46498;49.968;7.754;2022-10-16T16:30:11;97280.00;;;15.61;100.00
28606;BME280;46498;49.968;7.754;2022-10-16T16:35:20;97273.00;;;15.58;100.00
28606;BME280;46498;49.968;7.754;2022-10-16T16:40:26;97283.00;;;15.64;100.00
28606;BME280;46498;49.968;7.754;2022-10-16T16:45:27;97277.00;;;15.68;100.00
28606;BME280;46498;49.968;7.754;2022-10-16T16:50:28;97275.00;;;15.55;100.00
28606;BME280;46498;49.968;7.754;2022-10-16T16:55:29;97275.00;;;15.50;100.00
28606;BME280;46498;49.968;7.754;2022-10-16T17:00:30;97288.00;;;15.61;100.00
28606;BME280;46498;49.968;7.754;2022-10-16T17:05:35;97283.00;;;15.53;100.00
28606;BME280;46498;49.968;7.754;2022-10-16T17:10:42;97290.00;;;15.53;100.00
28606;BME280;46498;49.968;7.754;2022-10-16T17:15:47;97297.00;;;15.63;100.00
28606;BME280;46498;49.968;7.754;2022-10-16T17:20:49;97297.00;;;15.63;100.00
28606;BME280;46498;49.968;7.754;2022-10-16T17:25:50;97299.00;;;15.57;100.00
28606;BME280;46498;49.968;7.754;2022-10-16T17:30:51;97304.00;;;15.56;100.00
28606;BME280;46498;49.968;7.754;2022-10-16T17:35:51;97309.00;;;15.59;100.00
28606;BME280;46498;49.968;7.754;2022-10-16T17:40:52;97314.00;;;15.67;100.00
28606;BME280;46498;49.968;7.754;2022-10-16T17:45:53;97324.00;;;15.75;100.00
28606;BME280;46498;49.968;7.754;2022-10-16T17:50:54;97331.00;;;15.62;100.00
28606;BME280;46498;49.968;7.754;2022-10-16T17:55:55;97334.00;;;15.51;100.00
28606;BME280;46498;49.968;7.754;2022-10-16T18:00:59;97328.00;;;15.40;100.00
28606;BME280;46498;49.968;7.754;2022-10-16T18:06:00;97334.00;;;15.35;100.00
28606;BME280;46498;49.968;7.754;2022-10-16T18:11:08;97335.00;;;15.33;100.00
28606;BME280;46498;49.968;7.754;2022-10-16T18:16:11;97343.00;;;15.45;100.00
28606;BME280;46498;49.968;7.754;2022-10-16T18:21:14;97347.00;;;15.51;100.00
28606;BME280;46498;49.968;7.754;2022-10-16T18:26:15;97351.00;;;15.56;100.00
28606;BME280;46498;49.968;7.754;2022-10-16T18:31:17;97353.00;;;15.49;100.00
28606;BME280;46498;49.968;7.754;2022-10-16T18:36:24;97358.00;;;15.44;100.00
28606;BME280;46498;49.968;7.754;2022-10-16T18:41:25;97356.00;;;15.51;100.00
28606;BME280;46498;49.968;7.754;2022-10-16T18:46:27;97364.00;;;15.51;100.00
28606;BME280;46498;49.968;7.754;2022-10-16T18:51:30;97368.00;;;15.53;100.00
28606;BME280;46498;49.968;7.754;2022-10-16T18:56:32;97369.00;;;15.47;100.00
28606;BME280;46498;49.968;7.754;2022-10-16T19:01:34;97367.00;;;15.54;100.00
28606;BME280;46498;49.968;7.754;2022-10-16T19:06:37;97366.00;;;15.56;100.00
28606;BME280;46498;49.968;7.754;2022-10-16T19:11:39;97372.00;;;15.52;100.00
28606;BME280;46498;49.968;7.754;2022-10-16T19:16:42;97376.00;;;15.61;100.00
28606;BME280;46498;49.968;7.754;2022-10-16T19:21:44;97387.00;;;15.48;100.00
28606;BME280;46498;49.968;7.754;2022-10-16T19:26:47;97398.00;;;15.53;100.00
28606;BME280;46498;49.968;7.754;2022-10-16T19:31:48;97396.00;;;15.57;100.00
28606;BME280;46498;49.968;7.754;2022-10-16T19:36:51;97398.00;;;15.51;100.00
28606;BME280;46498;49.968;7.754;2022-10-16T19:41:52;97402.00;;;15.45;100.00
28606;BME280;46498;49.968;7.754;2022-10-16T19:46:53;97400.00;;;15.47;100.00
28606;BME280;46498;49.968;7.754;2022-10-16T19:51:54;97397.00;;;15.40;100.00
28606;BME280;46498;49.968;7.754;2022-10-16T19:56:55;97401.00;;;15.40;100.00
28606;BME280;46498;49.968;7.754;2022-10-16T20:01:58;97396.00;;;15.38;100.00
28606;BME280;46498;49.968;7.754;2022-10-16T20:06:59;97406.00;;;15.36;100.00
28606;BME280;46498;49.968;7.754;2022-10-16T20:12:01;97410.00;;;15.37;100.00
28606;BME280;46498;49.968;7.754;2022-10-16T20:17:02;97403.00;;;15.32;100.00
28606;BME280;46498;49.968;7.754;2022-10-16T20:22:02;97412.00;;;15.36;100.00
28606;BME280;46498;49.968;7.754;2022-10-16T20:27:04;97404.00;;;15.27;100.00
28606;BME280;46498;49.968;7.754;2022-10-16T20:32:05;97410.00;;;15.29;100.00
28606;BME280;46498;49.968;7.754;2022-10-16T20:37:05;97427.00;;;15.22;100.00
28606;BME280;46498;49.968;7.754;2022-10-16T20:42:06;97422.00;;;15.19;100.00
28606;BME280;46498;49.968;7.754;2022-10-16T20:47:07;97425.00;;;15.14;100.00
28606;BME280;46498;49.968;7.754;2022-10-16T20:52:08;97431.00;;;14.97;100.00
28606;BME280;46498;49.968;7.754;2022-10-16T20:57:09;97431.00;;;14.81;100.00
28606;BME280;46498;49.968;7.754;2022-10-16T21:02:10;97433.00;;;14.93;100.00
28606;BME280;46498;49.968;7.754;2022-10-16T21:07:15;97437.00;;;14.58;100.00
28606;BME280;46498;49.968;7.754;2022-10-16T21:12:17;97442.00;;;14.76;100.00
28606;BME280;46498;49.968;7.754;2022-10-16T21:17:18;97439.00;;;14.53;100.00
28606;BME280;46498;49.968;7.754;2022-10-16T21:22:19;97436.00;;;14.65;100.00
28606;BME280;46498;49.968;7.754;2022-10-16T21:27:20;97424.00;;;14.55;100.00
28606;BME280;46498;49.968;7.754;2022-10-16T21:32:21;97431.00;;;14.44;100.00
28606;BME280;46498;49.968;7.754;2022-10-16T21:37:21;97439.00;;;14.38;100.00
28606;BME280;46498;49.968;7.754;2022-10-16T21:42:22;97438.00;;;14.24;100.00
28606;BME280;46498;49.968;7.754;2022-10-16T21:47:23;97433.00;;;14.24;100.00
28606;BME280;46498;49.968;7.754;2022-10-16T21:52:24;97433.00;;;14.04;100.00
28606;BME280;46498;49.968;7.754;2022-10-16T21:57:25;97434.00;;;13.90;100.00
28606;BME280;46498;49.968;7.754;2022-10-16T22:02:27;97443.00;;;13.90;100.00
28606;BME280;46498;49.968;7.754;2022-10-16T22:07:28;97439.00;;;13.81;100.00
28606;BME280;46498;49.968;7.754;2022-10-16T22:12:30;97444.00;;;13.74;100.00
28606;BME280;46498;49.968;7.754;2022-10-16T22:17:31;97456.00;;;13.63;100.00
28606;BME280;46498;49.968;7.754;2022-10-16T22:22:32;97451.00;;;13.58;100.00
28606;BME280;46498;49.968;7.754;2022-10-16T22:27:33;97451.00;;;13.53;100.00
28606;BME280;46498;49.968;7.754;2022-10-16T22:32:33;97447.00;;;13.49;100.00
28606;BME280;46498;49.968;7.754;2022-10-16T22:37:34;97449.00;;;13.29;100.00
28606;BME280;46498;49.968;7.754;2022-10-16T22:42:35;97463.00;;;13.20;100.00
28606;BME280;46498;49.968;7.754;2022-10-16T22:47:36;97459.00;;;13.30;100.00
28606;BME280;46498;49.968;7.754;2022-10-16T22:52:37;97460.00;;;13.34;100.00
28606;BME280;46498;49.968;7.754;2022-10-16T22:57:38;97459.00;;;13.28;100.00
28606;BME280;46498;49.968;7.754;2022-10-16T23:02:40;97463.00;;;13.24;100.00
28606;BME280;46498;49.968;7.754;2022-10-16T23:07:40;97469.00;;;13.36;100.00
28606;BME280;46498;49.968;7.754;2022-10-16T23:12:44;97474.00;;;13.74;100.00
28606;BME280;46498;49.968;7.754;2022-10-16T23:17:46;97470.00;;;13.81;100.00
28606;BME280;46498;49.968;7.754;2022-10-16T23:22:47;97469.00;;;13.93;100.00
28606;BME280;46498;49.968;7.754;2022-10-16T23:27:47;97475.00;;;14.01;100.00
28606;BME280;46498;49.968;7.754;2022-10-16T23:32:48;97480.00;;;14.19;100.00
28606;BME280;46498;49.968;7.754;2022-10-16T23:37:49;97484.00;;;14.35;100.00
28606;BME280;46498;49.968;7.754;2022-10-16T23:42:51;97480.00;;;14.38;100.00
28606;BME280;46498;49.968;7.754;2022-10-16T23:47:52;97486.00;;;14.53;100.00
28606;BME280;46498;49.968;7.754;2022-10-16T23:52:52;97488.00;;;14.63;100.00
28606;BME280;46498;49.968;7.754;2022-10-16T23:57:53;97489.00;;;14.71;100.00
